sensor_id;sensor_type;location;lat;lon;timestamp;temperature;humidity
20566;DHT22;10441;50.884;12.064;2022-09-04T00:00:50;15.60;99.90
20566;DHT22;10441;50.884;12.064;2022-09-04T00:03:25;15.50;99.90
20566;DHT22;10441;50.884;12.064;2022-09-04T00:05:55;15.50;99.90
20566;DHT22;10441;50.884;12.064;2022-09-04T00:11:15;15.30;99.90
20566;DHT22;10441;50.884;12.064;2022-09-04T00:13:47;15.20;99.90
20566;DHT22;10441;50.884;12.064;2022-09-04T00:16:18;15.10;99.90
20566;DHT22;10441;50.884;12.064;2022-09-04T00:18:48;15.00;99.90
20566;DHT22;10441;50.884;12.064;2022-09-04T00:21:19;15.00;99.90
20566;DHT22;10441;50.884;12.064;2022-09-04T00:23:49;14.80;99.90
20566;DHT22;10441;50.884;12.064;2022-09-04T00:26:32;14.80;99.90
20566;DHT22;10441;50.884;12.064;2022-09-04T00:29:05;14.70;99.90
20566;DHT22;10441;50.884;12.064;2022-09-04T00:31:36;14.60;99.90
20566;DHT22;10441;50.884;12.064;2022-09-04T00:34:08;13.90;99.90
20566;DHT22;10441;50.884;12.064;2022-09-04T00:36:40;14.50;99.90
20566;DHT22;10441;50.884;12.064;2022-09-04T00:39:09;14.50;99.90
20566;DHT22;10441;50.884;12.064;2022-09-04T00:41:42;14.40;99.90
20566;DHT22;10441;50.884;12.064;2022-09-04T00:44:18;14.50;99.90
20566;DHT22;10441;50.884;12.064;2022-09-04T00:46:51;14.50;99.90
20566;DHT22;10441;50.884;12.064;2022-09-04T00:49:38;14.40;99.90
20566;DHT22;10441;50.884;12.064;2022-09-04T00:52:18;14.30;99.90
20566;DHT22;10441;50.884;12.064;2022-09-04T00:54:56;14.20;99.90
20566;DHT22;10441;50.884;12.064;2022-09-04T00:57:48;14.10;99.90
20566;DHT22;10441;50.884;12.064;2022-09-04T01:00:17;13.90;99.90
20566;DHT22;10441;50.884;12.064;2022-09-04T01:05:38;13.70;99.90
20566;DHT22;10441;50.884;12.064;2022-09-04T01:08:14;13.60;99.90
20566;DHT22;10441;50.884;12.064;2022-09-04T01:10:54;13.60;99.90
20566;DHT22;10441;50.884;12.064;2022-09-04T01:13:27;13.50;99.90
20566;DHT22;10441;50.884;12.064;2022-09-04T01:16:00;13.40;99.90
20566;DHT22;10441;50.884;12.064;2022-09-04T01:18:31;13.60;99.90
20566;DHT22;10441;50.884;12.064;2022-09-04T01:21:09;13.50;99.90
20566;DHT22;10441;50.884;12.064;2022-09-04T01:26:26;13.50;99.90
20566;DHT22;10441;50.884;12.064;2022-09-04T01:28:57;13.50;99.90
20566;DHT22;10441;50.884;12.064;2022-09-04T01:31:33;13.40;99.90
20566;DHT22;10441;50.884;12.064;2022-09-04T01:34:05;13.50;99.90
20566;DHT22;10441;50.884;12.064;2022-09-04T01:36:38;13.50;99.90
20566;DHT22;10441;50.884;12.064;2022-09-04T01:39:07;13.60;99.90
20566;DHT22;10441;50.884;12.064;2022-09-04T01:41:37;13.60;99.90
20566;DHT22;10441;50.884;12.064;2022-09-04T01:44:08;13.70;99.90
20566;DHT22;10441;50.884;12.064;2022-09-04T01:46:46;13.70;99.90
20566;DHT22;10441;50.884;12.064;2022-09-04T01:49:23;13.60;99.90
20566;DHT22;10441;50.884;12.064;2022-09-04T01:51:57;13.50;99.90
20566;DHT22;10441;50.884;12.064;2022-09-04T01:54:32;13.40;99.90
20566;DHT22;10441;50.884;12.064;2022-09-04T01:57:12;13.20;99.90
20566;DHT22;10441;50.884;12.064;2022-09-04T01:59:46;13.20;99.90
20566;DHT22;10441;50.884;12.064;2022-09-04T02:02:16;13.30;99.90
20566;DHT22;10441;50.884;12.064;2022-09-04T02:04:47;13.20;99.90
20566;DHT22;10441;50.884;12.064;2022-09-04T02:07:19;13.10;99.90
20566;DHT22;10441;50.884;12.064;2022-09-04T02:09:55;13.00;99.90
20566;DHT22;10441;50.884;12.064;2022-09-04T02:12:27;12.90;99.90
20566;DHT22;10441;50.884;12.064;2022-09-04T02:15:02;12.80;99.90
20566;DHT22;10441;50.884;12.064;2022-09-04T02:17:35;12.80;99.90
20566;DHT22;10441;50.884;12.064;2022-09-04T02:20:08;12.60;99.90
20566;DHT22;10441;50.884;12.064;2022-09-04T02:22:40;12.70;99.90
20566;DHT22;10441;50.884;12.064;2022-09-04T02:25:15;12.70;99.90
20566;DHT22;10441;50.884;12.064;2022-09-04T02:27:50;12.70;99.90
20566;DHT22;10441;50.884;12.064;2022-09-04T02:30:19;12.70;99.90
20566;DHT22;10441;50.884;12.064;2022-09-04T02:32:48;12.60;99.90
20566;DHT22;10441;50.884;12.064;2022-09-04T02:35:19;12.60;99.90
20566;DHT22;10441;50.884;12.064;2022-09-04T02:37:52;12.60;99.90
20566;DHT22;10441;50.884;12.064;2022-09-04T02:40:25;12.50;99.90
20566;DHT22;10441;50.884;12.064;2022-09-04T02:42:59;12.40;99.90
20566;DHT22;10441;50.884;12.064;2022-09-04T02:45:32;12.40;99.90
20566;DHT22;10441;50.884;12.064;2022-09-04T02:48:02;12.40;99.90
20566;DHT22;10441;50.884;12.064;2022-09-04T02:50:36;12.50;99.90
20566;DHT22;10441;50.884;12.064;2022-09-04T02:53:12;12.40;99.90
20566;DHT22;10441;50.884;12.064;2022-09-04T02:55:47;12.50;99.90
20566;DHT22;10441;50.884;12.064;2022-09-04T02:58:22;12.50;99.90
20566;DHT22;10441;50.884;12.064;2022-09-04T03:00:53;12.40;99.90
20566;DHT22;10441;50.884;12.064;2022-09-04T03:03:26;12.30;99.90
20566;DHT22;10441;50.884;12.064;2022-09-04T03:05:58;12.40;99.90
20566;DHT22;10441;50.884;12.064;2022-09-04T03:08:29;12.40;99.90
20566;DHT22;10441;50.884;12.064;2022-09-04T03:10:59;12.50;99.90
20566;DHT22;10441;50.884;12.064;2022-09-04T03:13:31;12.50;99.90
20566;DHT22;10441;50.884;12.064;2022-09-04T03:16:01;12.50;99.90
20566;DHT22;10441;50.884;12.064;2022-09-04T03:18:31;12.50;99.90
20566;DHT22;10441;50.884;12.064;2022-09-04T03:21:07;12.40;99.90
20566;DHT22;10441;50.884;12.064;2022-09-04T03:23:38;12.40;99.90
20566;DHT22;10441;50.884;12.064;2022-09-04T03:26:20;12.50;99.90
20566;DHT22;10441;50.884;12.064;2022-09-04T03:28:53;12.50;99.90
20566;DHT22;10441;50.884;12.064;2022-09-04T03:31:27;12.60;99.90
20566;DHT22;10441;50.884;12.064;2022-09-04T03:34:02;12.70;99.90
20566;DHT22;10441;50.884;12.064;2022-09-04T03:36:34;12.80;99.90
20566;DHT22;10441;50.884;12.064;2022-09-04T03:39:06;12.90;99.90
20566;DHT22;10441;50.884;12.064;2022-09-04T03:41:37;12.90;99.90
20566;DHT22;10441;50.884;12.064;2022-09-04T03:44:14;12.90;99.90
20566;DHT22;10441;50.884;12.064;2022-09-04T03:46:52;12.90;99.90
20566;DHT22;10441;50.884;12.064;2022-09-04T03:49:25;13.00;99.90
20566;DHT22;10441;50.884;12.064;2022-09-04T03:51:58;13.10;99.90
20566;DHT22;10441;50.884;12.064;2022-09-04T03:54:37;13.10;99.90
20566;DHT22;10441;50.884;12.064;2022-09-04T03:57:15;13.10;99.90
20566;DHT22;10441;50.884;12.064;2022-09-04T03:59:53;13.00;99.90
20566;DHT22;10441;50.884;12.064;2022-09-04T04:02:24;13.00;99.90
20566;DHT22;10441;50.884;12.064;2022-09-04T04:07:42;13.00;99.90
20566;DHT22;10441;50.884;12.064;2022-09-04T04:10:17;12.80;99.90
20566;DHT22;10441;50.884;12.064;2022-09-04T04:12:58;12.80;99.90
20566;DHT22;10441;50.884;12.064;2022-09-04T04:15:34;12.70;99.90
20566;DHT22;10441;50.884;12.064;2022-09-04T04:18:12;12.60;99.90
20566;DHT22;10441;50.884;12.064;2022-09-04T04:20:42;12.60;99.90
20566;DHT22;10441;50.884;12.064;2022-09-04T04:23:18;12.60;99.90
20566;DHT22;10441;50.884;12.064;2022-09-04T04:25:55;12.50;99.90
20566;DHT22;10441;50.884;12.064;2022-09-04T04:28:31;12.40;99.90
20566;DHT22;10441;50.884;12.064;2022-09-04T04:31:07;12.30;99.90
20566;DHT22;10441;50.884;12.064;2022-09-04T04:33:39;12.30;99.90
20566;DHT22;10441;50.884;12.064;2022-09-04T04:36:15;12.20;99.90
20566;DHT22;10441;50.884;12.064;2022-09-04T04:38:59;12.10;99.90
20566;DHT22;10441;50.884;12.064;2022-09-04T04:41:34;12.10;99.90
20566;DHT22;10441;50.884;12.064;2022-09-04T04:44:29;12.20;99.90
20566;DHT22;10441;50.884;12.064;2022-09-04T04:47:16;12.20;99.90
20566;DHT22;10441;50.884;12.064;2022-09-04T04:49:55;12.20;99.90
20566;DHT22;10441;50.884;12.064;2022-09-04T04:52:27;12.20;99.90
20566;DHT22;10441;50.884;12.064;2022-09-04T04:54:59;12.20;99.90
20566;DHT22;10441;50.884;12.064;2022-09-04T04:57:33;12.30;99.90
20566;DHT22;10441;50.884;12.064;2022-09-04T05:00:07;12.30;99.90
20566;DHT22;10441;50.884;12.064;2022-09-04T05:02:54;12.50;99.90
20566;DHT22;10441;50.884;12.064;2022-09-04T05:05:42;12.80;99.90
20566;DHT22;10441;50.884;12.064;2022-09-04T05:08:19;13.00;99.90
20566;DHT22;10441;50.884;12.064;2022-09-04T05:10:49;14.60;99.90
20566;DHT22;10441;50.884;12.064;2022-09-04T05:13:20;14.70;99.90
20566;DHT22;10441;50.884;12.064;2022-09-04T05:15:53;14.20;99.90
20566;DHT22;10441;50.884;12.064;2022-09-04T05:18:24;13.90;99.90
20566;DHT22;10441;50.884;12.064;2022-09-04T05:20:58;14.10;99.90
20566;DHT22;10441;50.884;12.064;2022-09-04T05:23:28;14.50;99.90
20566;DHT22;10441;50.884;12.064;2022-09-04T05:25:59;14.40;99.90
20566;DHT22;10441;50.884;12.064;2022-09-04T05:28:34;14.20;99.90
20566;DHT22;10441;50.884;12.064;2022-09-04T05:31:08;14.00;99.90
20566;DHT22;10441;50.884;12.064;2022-09-04T05:36:25;14.00;99.90
20566;DHT22;10441;50.884;12.064;2022-09-04T05:39:08;15.40;99.90
20566;DHT22;10441;50.884;12.064;2022-09-04T05:41:45;17.10;99.90
20566;DHT22;10441;50.884;12.064;2022-09-04T05:44:27;17.00;99.90
20566;DHT22;10441;50.884;12.064;2022-09-04T05:47:01;16.30;99.90
20566;DHT22;10441;50.884;12.064;2022-09-04T05:49:36;15.00;99.90
20566;DHT22;10441;50.884;12.064;2022-09-04T05:52:26;14.40;99.90
20566;DHT22;10441;50.884;12.064;2022-09-04T05:57:49;14.10;99.90
20566;DHT22;10441;50.884;12.064;2022-09-04T06:00:37;13.90;99.90
20566;DHT22;10441;50.884;12.064;2022-09-04T06:06:08;14.30;99.90
20566;DHT22;10441;50.884;12.064;2022-09-04T06:08:51;14.90;99.90
20566;DHT22;10441;50.884;12.064;2022-09-04T06:11:44;16.70;99.90
20566;DHT22;10441;50.884;12.064;2022-09-04T06:14:20;17.10;99.90
20566;DHT22;10441;50.884;12.064;2022-09-04T06:16:58;19.70;99.90
20566;DHT22;10441;50.884;12.064;2022-09-04T06:19:32;21.10;99.90
20566;DHT22;10441;50.884;12.064;2022-09-04T06:22:16;20.30;99.90
20566;DHT22;10441;50.884;12.064;2022-09-04T06:25:03;21.60;99.90
20566;DHT22;10441;50.884;12.064;2022-09-04T06:27:46;22.00;99.90
20566;DHT22;10441;50.884;12.064;2022-09-04T06:36:03;23.40;99.90
20566;DHT22;10441;50.884;12.064;2022-09-04T06:38:42;24.20;99.90
20566;DHT22;10441;50.884;12.064;2022-09-04T06:41:23;23.90;99.90
20566;DHT22;10441;50.884;12.064;2022-09-04T06:43:58;25.00;99.90
20566;DHT22;10441;50.884;12.064;2022-09-04T06:46:27;24.60;99.90
20566;DHT22;10441;50.884;12.064;2022-09-04T06:49:00;25.20;99.90
20566;DHT22;10441;50.884;12.064;2022-09-04T06:51:40;24.90;99.90
20566;DHT22;10441;50.884;12.064;2022-09-04T06:54:14;25.00;99.90
20566;DHT22;10441;50.884;12.064;2022-09-04T06:59:38;25.90;99.90
20566;DHT22;10441;50.884;12.064;2022-09-04T07:02:11;25.50;99.90
20566;DHT22;10441;50.884;12.064;2022-09-04T07:04:49;25.90;99.90
20566;DHT22;10441;50.884;12.064;2022-09-04T07:07:19;26.50;99.90
20566;DHT22;10441;50.884;12.064;2022-09-04T07:09:51;25.70;99.90
20566;DHT22;10441;50.884;12.064;2022-09-04T07:12:26;25.90;99.90
20566;DHT22;10441;50.884;12.064;2022-09-04T07:17:29;25.40;99.90
20566;DHT22;10441;50.884;12.064;2022-09-04T07:20:10;25.20;99.90
20566;DHT22;10441;50.884;12.064;2022-09-04T07:22:52;24.60;99.90
20566;DHT22;10441;50.884;12.064;2022-09-04T07:25:22;22.60;99.90
20566;DHT22;10441;50.884;12.064;2022-09-04T07:28:00;21.80;99.90
20566;DHT22;10441;50.884;12.064;2022-09-04T07:30:31;21.90;99.90
20566;DHT22;10441;50.884;12.064;2022-09-04T07:33:05;23.20;99.90
20566;DHT22;10441;50.884;12.064;2022-09-04T07:35:33;23.50;99.90
20566;DHT22;10441;50.884;12.064;2022-09-04T07:38:05;23.60;99.90
20566;DHT22;10441;50.884;12.064;2022-09-04T07:40:35;23.40;99.90
20566;DHT22;10441;50.884;12.064;2022-09-04T07:43:05;23.10;99.90
20566;DHT22;10441;50.884;12.064;2022-09-04T07:45:36;23.00;99.90
20566;DHT22;10441;50.884;12.064;2022-09-04T07:48:17;24.00;99.90
20566;DHT22;10441;50.884;12.064;2022-09-04T07:50:51;23.70;99.90
20566;DHT22;10441;50.884;12.064;2022-09-04T07:53:23;23.60;99.90
20566;DHT22;10441;50.884;12.064;2022-09-04T07:55:53;23.90;99.90
20566;DHT22;10441;50.884;12.064;2022-09-04T07:58:29;23.70;99.90
20566;DHT22;10441;50.884;12.064;2022-09-04T08:01:02;24.60;99.90
20566;DHT22;10441;50.884;12.064;2022-09-04T08:03:51;24.80;99.90
20566;DHT22;10441;50.884;12.064;2022-09-04T08:06:26;25.00;99.90
20566;DHT22;10441;50.884;12.064;2022-09-04T08:11:44;24.90;99.90
20566;DHT22;10441;50.884;12.064;2022-09-04T08:14:25;24.60;99.90
20566;DHT22;10441;50.884;12.064;2022-09-04T08:16:58;25.30;99.90
20566;DHT22;10441;50.884;12.064;2022-09-04T08:19:33;25.10;99.90
20566;DHT22;10441;50.884;12.064;2022-09-04T08:22:04;25.20;99.90
20566;DHT22;10441;50.884;12.064;2022-09-04T08:24:43;24.70;99.90
20566;DHT22;10441;50.884;12.064;2022-09-04T08:27:19;24.80;99.90
20566;DHT22;10441;50.884;12.064;2022-09-04T08:29:53;25.70;99.90
20566;DHT22;10441;50.884;12.064;2022-09-04T08:32:28;26.10;99.90
20566;DHT22;10441;50.884;12.064;2022-09-04T08:35:02;25.80;99.90
20566;DHT22;10441;50.884;12.064;2022-09-04T08:37:32;25.50;99.90
20566;DHT22;10441;50.884;12.064;2022-09-04T08:45:50;24.60;99.90
20566;DHT22;10441;50.884;12.064;2022-09-04T08:56:39;24.90;99.90
20566;DHT22;10441;50.884;12.064;2022-09-04T08:59:23;23.40;99.90
20566;DHT22;10441;50.884;12.064;2022-09-04T09:01:58;24.40;99.90
20566;DHT22;10441;50.884;12.064;2022-09-04T09:04:42;25.50;99.90
20566;DHT22;10441;50.884;12.064;2022-09-04T09:07:22;26.40;99.90
20566;DHT22;10441;50.884;12.064;2022-09-04T09:10:04;27.00;99.90
20566;DHT22;10441;50.884;12.064;2022-09-04T09:15:40;27.30;99.90
20566;DHT22;10441;50.884;12.064;2022-09-04T09:18:15;27.90;99.90
20566;DHT22;10441;50.884;12.064;2022-09-04T09:20:49;27.90;99.90
20566;DHT22;10441;50.884;12.064;2022-09-04T09:25:48;29.50;99.90
20566;DHT22;10441;50.884;12.064;2022-09-04T09:28:35;29.70;99.90
20566;DHT22;10441;50.884;12.064;2022-09-04T09:36:43;30.30;99.20
20566;DHT22;10441;50.884;12.064;2022-09-04T09:39:25;29.50;99.90
20566;DHT22;10441;50.884;12.064;2022-09-04T09:42:09;28.70;99.90
20566;DHT22;10441;50.884;12.064;2022-09-04T09:44:53;28.30;99.90
20566;DHT22;10441;50.884;12.064;2022-09-04T09:47:41;27.90;99.90
20566;DHT22;10441;50.884;12.064;2022-09-04T09:50:29;28.60;99.90
20566;DHT22;10441;50.884;12.064;2022-09-04T09:56:04;30.30;99.20
20566;DHT22;10441;50.884;12.064;2022-09-04T09:58:46;30.20;98.60
20566;DHT22;10441;50.884;12.064;2022-09-04T10:01:21;29.00;99.30
20566;DHT22;10441;50.884;12.064;2022-09-04T10:04:03;28.70;98.60
20566;DHT22;10441;50.884;12.064;2022-09-04T10:17:49;28.20;99.90
20566;DHT22;10441;50.884;12.064;2022-09-04T10:20:23;29.10;99.70
20566;DHT22;10441;50.884;12.064;2022-09-04T10:25:46;26.10;99.90
20566;DHT22;10441;50.884;12.064;2022-09-04T10:34:12;26.90;99.90
20566;DHT22;10441;50.884;12.064;2022-09-04T10:36:43;27.60;99.90
20566;DHT22;10441;50.884;12.064;2022-09-04T10:39:16;26.90;99.90
20566;DHT22;10441;50.884;12.064;2022-09-04T10:42:09;26.10;99.90
20566;DHT22;10441;50.884;12.064;2022-09-04T10:44:43;26.20;99.90
20566;DHT22;10441;50.884;12.064;2022-09-04T10:47:17;26.30;99.90
20566;DHT22;10441;50.884;12.064;2022-09-04T10:49:56;27.90;99.90
20566;DHT22;10441;50.884;12.064;2022-09-04T10:52:34;27.90;99.90
20566;DHT22;10441;50.884;12.064;2022-09-04T10:55:15;28.20;99.70
20566;DHT22;10441;50.884;12.064;2022-09-04T10:57:49;28.20;98.90
20566;DHT22;10441;50.884;12.064;2022-09-04T11:00:18;28.00;98.40
20566;DHT22;10441;50.884;12.064;2022-09-04T11:02:57;27.70;98.80
20566;DHT22;10441;50.884;12.064;2022-09-04T11:05:42;27.50;99.00
20566;DHT22;10441;50.884;12.064;2022-09-04T11:08:18;27.40;98.10
20566;DHT22;10441;50.884;12.064;2022-09-04T11:10:55;27.40;98.60
20566;DHT22;10441;50.884;12.064;2022-09-04T11:13:35;27.20;97.50
20566;DHT22;10441;50.884;12.064;2022-09-04T11:16:07;28.00;98.00
20566;DHT22;10441;50.884;12.064;2022-09-04T11:18:50;27.40;98.90
20566;DHT22;10441;50.884;12.064;2022-09-04T11:21:40;28.10;97.90
20566;DHT22;10441;50.884;12.064;2022-09-04T11:27:13;29.10;96.90
20566;DHT22;10441;50.884;12.064;2022-09-04T11:32:49;28.50;97.40
20566;DHT22;10441;50.884;12.064;2022-09-04T11:43:55;27.60;96.70
20566;DHT22;10441;50.884;12.064;2022-09-04T11:46:31;29.10;96.00
20566;DHT22;10441;50.884;12.064;2022-09-04T11:49:06;27.40;95.90
20566;DHT22;10441;50.884;12.064;2022-09-04T11:51:55;27.80;95.60
20566;DHT22;10441;50.884;12.064;2022-09-04T12:02:49;25.50;97.80
20566;DHT22;10441;50.884;12.064;2022-09-04T12:05:20;26.10;98.30
20566;DHT22;10441;50.884;12.064;2022-09-04T12:08:06;27.00;97.30
20566;DHT22;10441;50.884;12.064;2022-09-04T12:10:44;27.20;96.80
20566;DHT22;10441;50.884;12.064;2022-09-04T12:21:55;27.40;97.00
20566;DHT22;10441;50.884;12.064;2022-09-04T12:24:44;27.00;96.70
20566;DHT22;10441;50.884;12.064;2022-09-04T12:30:05;26.30;96.70
20566;DHT22;10441;50.884;12.064;2022-09-04T12:38:25;26.60;96.60
20566;DHT22;10441;50.884;12.064;2022-09-04T12:41:00;27.20;96.40
20566;DHT22;10441;50.884;12.064;2022-09-04T12:43:33;28.20;95.90
20566;DHT22;10441;50.884;12.064;2022-09-04T12:46:04;29.40;94.70
20566;DHT22;10441;50.884;12.064;2022-09-04T12:48:39;29.70;93.10
20566;DHT22;10441;50.884;12.064;2022-09-04T12:51:09;29.90;94.00
20566;DHT22;10441;50.884;12.064;2022-09-04T12:56:17;29.50;92.80
20566;DHT22;10441;50.884;12.064;2022-09-04T12:58:54;30.00;91.90
20566;DHT22;10441;50.884;12.064;2022-09-04T13:03:58;28.40;91.60
20566;DHT22;10441;50.884;12.064;2022-09-04T13:06:31;28.10;92.90
20566;DHT22;10441;50.884;12.064;2022-09-04T13:09:03;27.40;95.30
20566;DHT22;10441;50.884;12.064;2022-09-04T13:11:39;28.00;93.60
20566;DHT22;10441;50.884;12.064;2022-09-04T13:14:18;27.30;94.00
20566;DHT22;10441;50.884;12.064;2022-09-04T13:16:55;28.00;93.90
20566;DHT22;10441;50.884;12.064;2022-09-04T13:19:25;28.20;94.70
20566;DHT22;10441;50.884;12.064;2022-09-04T13:22:00;27.80;94.90
20566;DHT22;10441;50.884;12.064;2022-09-04T13:24:34;27.10;95.40
20566;DHT22;10441;50.884;12.064;2022-09-04T13:27:10;26.30;96.40
20566;DHT22;10441;50.884;12.064;2022-09-04T13:29:44;26.40;96.50
20566;DHT22;10441;50.884;12.064;2022-09-04T13:32:20;26.50;96.60
20566;DHT22;10441;50.884;12.064;2022-09-04T13:34:55;26.40;97.20
20566;DHT22;10441;50.884;12.064;2022-09-04T13:37:31;27.20;95.40
20566;DHT22;10441;50.884;12.064;2022-09-04T13:40:10;27.60;95.00
20566;DHT22;10441;50.884;12.064;2022-09-04T13:43:00;27.10;95.10
20566;DHT22;10441;50.884;12.064;2022-09-04T13:45:29;26.20;96.40
20566;DHT22;10441;50.884;12.064;2022-09-04T13:47:59;26.20;96.30
20566;DHT22;10441;50.884;12.064;2022-09-04T13:50:31;26.20;96.30
20566;DHT22;10441;50.884;12.064;2022-09-04T13:53:00;26.00;96.70
20566;DHT22;10441;50.884;12.064;2022-09-04T13:55:32;26.00;96.90
20566;DHT22;10441;50.884;12.064;2022-09-04T13:58:02;26.00;96.80
20566;DHT22;10441;50.884;12.064;2022-09-04T14:00:34;25.80;96.70
20566;DHT22;10441;50.884;12.064;2022-09-04T14:03:04;25.90;96.80
20566;DHT22;10441;50.884;12.064;2022-09-04T14:05:32;25.60;96.90
20566;DHT22;10441;50.884;12.064;2022-09-04T14:08:03;25.20;97.70
20566;DHT22;10441;50.884;12.064;2022-09-04T14:10:54;25.20;98.00
20566;DHT22;10441;50.884;12.064;2022-09-04T14:13:31;25.10;98.00
20566;DHT22;10441;50.884;12.064;2022-09-04T14:16:08;25.00;97.80
20566;DHT22;10441;50.884;12.064;2022-09-04T14:18:48;25.20;97.90
20566;DHT22;10441;50.884;12.064;2022-09-04T14:21:19;25.50;97.60
20566;DHT22;10441;50.884;12.064;2022-09-04T14:23:53;25.50;97.40
20566;DHT22;10441;50.884;12.064;2022-09-04T14:26:27;26.70;96.60
20566;DHT22;10441;50.884;12.064;2022-09-04T14:29:08;27.90;95.40
20566;DHT22;10441;50.884;12.064;2022-09-04T14:32:00;27.80;95.40
20566;DHT22;10441;50.884;12.064;2022-09-04T14:34:39;27.60;95.20
20566;DHT22;10441;50.884;12.064;2022-09-04T14:37:13;26.10;96.00
20566;DHT22;10441;50.884;12.064;2022-09-04T14:39:46;25.70;96.20
20566;DHT22;10441;50.884;12.064;2022-09-04T14:45:11;29.00;94.00
20566;DHT22;10441;50.884;12.064;2022-09-04T14:47:43;29.40;93.60
20566;DHT22;10441;50.884;12.064;2022-09-04T14:50:13;28.20;93.20
20566;DHT22;10441;50.884;12.064;2022-09-04T14:52:45;28.60;94.20
20566;DHT22;10441;50.884;12.064;2022-09-04T14:55:15;29.20;92.90
20566;DHT22;10441;50.884;12.064;2022-09-04T14:57:45;29.20;92.10
20566;DHT22;10441;50.884;12.064;2022-09-04T15:00:17;28.80;92.20
20566;DHT22;10441;50.884;12.064;2022-09-04T15:02:47;29.10;92.00
20566;DHT22;10441;50.884;12.064;2022-09-04T15:05:19;29.60;91.50
20566;DHT22;10441;50.884;12.064;2022-09-04T15:07:55;27.80;92.10
20566;DHT22;10441;50.884;12.064;2022-09-04T15:10:25;27.30;93.40
20566;DHT22;10441;50.884;12.064;2022-09-04T15:12:54;27.80;94.10
20566;DHT22;10441;50.884;12.064;2022-09-04T15:15:28;27.90;94.20
20566;DHT22;10441;50.884;12.064;2022-09-04T15:17:58;27.50;93.40
20566;DHT22;10441;50.884;12.064;2022-09-04T15:20:28;26.20;94.20
20566;DHT22;10441;50.884;12.064;2022-09-04T15:22:57;26.20;94.40
20566;DHT22;10441;50.884;12.064;2022-09-04T15:28:07;26.50;93.90
20566;DHT22;10441;50.884;12.064;2022-09-04T15:30:38;27.20;93.80
20566;DHT22;10441;50.884;12.064;2022-09-04T15:33:07;27.00;94.20
20566;DHT22;10441;50.884;12.064;2022-09-04T15:35:35;26.90;94.50
20566;DHT22;10441;50.884;12.064;2022-09-04T15:38:04;26.90;94.70
20566;DHT22;10441;50.884;12.064;2022-09-04T15:40:32;26.40;93.70
20566;DHT22;10441;50.884;12.064;2022-09-04T15:43:02;26.40;93.90
20566;DHT22;10441;50.884;12.064;2022-09-04T15:45:34;26.90;94.30
20566;DHT22;10441;50.884;12.064;2022-09-04T15:48:15;26.70;95.10
20566;DHT22;10441;50.884;12.064;2022-09-04T15:50:53;26.50;94.50
20566;DHT22;10441;50.884;12.064;2022-09-04T15:53:22;26.50;94.90
20566;DHT22;10441;50.884;12.064;2022-09-04T15:55:58;26.10;95.20
20566;DHT22;10441;50.884;12.064;2022-09-04T15:58:40;26.30;94.70
20566;DHT22;10441;50.884;12.064;2022-09-04T16:01:11;25.90;94.70
20566;DHT22;10441;50.884;12.064;2022-09-04T16:03:47;25.80;94.80
20566;DHT22;10441;50.884;12.064;2022-09-04T16:06:18;25.60;94.70
20566;DHT22;10441;50.884;12.064;2022-09-04T16:08:48;25.50;95.20
20566;DHT22;10441;50.884;12.064;2022-09-04T16:11:20;25.50;94.60
20566;DHT22;10441;50.884;12.064;2022-09-04T16:13:52;25.50;94.70
20566;DHT22;10441;50.884;12.064;2022-09-04T16:16:21;25.40;94.80
20566;DHT22;10441;50.884;12.064;2022-09-04T16:19:01;25.50;94.90
20566;DHT22;10441;50.884;12.064;2022-09-04T16:21:34;25.40;94.80
20566;DHT22;10441;50.884;12.064;2022-09-04T16:24:06;25.50;94.70
20566;DHT22;10441;50.884;12.064;2022-09-04T16:26:33;25.50;94.60
20566;DHT22;10441;50.884;12.064;2022-09-04T16:29:01;25.30;94.70
20566;DHT22;10441;50.884;12.064;2022-09-04T16:31:30;25.30;94.90
20566;DHT22;10441;50.884;12.064;2022-09-04T16:34:01;24.90;95.10
20566;DHT22;10441;50.884;12.064;2022-09-04T16:36:30;24.80;95.30
20566;DHT22;10441;50.884;12.064;2022-09-04T16:39:03;24.70;95.60
20566;DHT22;10441;50.884;12.064;2022-09-04T16:41:32;24.60;95.50
20566;DHT22;10441;50.884;12.064;2022-09-04T16:44:07;24.60;95.80
20566;DHT22;10441;50.884;12.064;2022-09-04T16:46:37;24.60;95.50
20566;DHT22;10441;50.884;12.064;2022-09-04T16:49:08;24.60;95.80
20566;DHT22;10441;50.884;12.064;2022-09-04T16:51:39;24.50;97.30
20566;DHT22;10441;50.884;12.064;2022-09-04T16:54:09;24.30;99.90
20566;DHT22;10441;50.884;12.064;2022-09-04T16:56:38;24.20;99.60
20566;DHT22;10441;50.884;12.064;2022-09-04T16:59:09;24.10;99.90
20566;DHT22;10441;50.884;12.064;2022-09-04T17:01:40;23.90;99.90
20566;DHT22;10441;50.884;12.064;2022-09-04T17:04:15;23.70;99.90
20566;DHT22;10441;50.884;12.064;2022-09-04T17:06:48;23.60;99.90
20566;DHT22;10441;50.884;12.064;2022-09-04T17:09:23;23.20;99.90
20566;DHT22;10441;50.884;12.064;2022-09-04T17:11:51;23.30;99.90
20566;DHT22;10441;50.884;12.064;2022-09-04T17:14:21;23.30;99.90
20566;DHT22;10441;50.884;12.064;2022-09-04T17:16:52;23.30;99.90
20566;DHT22;10441;50.884;12.064;2022-09-04T17:19:23;23.10;99.90
20566;DHT22;10441;50.884;12.064;2022-09-04T17:22:09;23.40;99.90
20566;DHT22;10441;50.884;12.064;2022-09-04T17:24:57;23.70;99.90
20566;DHT22;10441;50.884;12.064;2022-09-04T17:27:29;23.70;99.50
20566;DHT22;10441;50.884;12.064;2022-09-04T17:30:02;23.60;99.40
20566;DHT22;10441;50.884;12.064;2022-09-04T17:32:32;23.40;99.80
20566;DHT22;10441;50.884;12.064;2022-09-04T17:35:07;23.30;99.90
20566;DHT22;10441;50.884;12.064;2022-09-04T17:37:36;23.20;99.90
20566;DHT22;10441;50.884;12.064;2022-09-04T17:40:12;23.20;99.90
20566;DHT22;10441;50.884;12.064;2022-09-04T17:42:43;23.00;99.90
20566;DHT22;10441;50.884;12.064;2022-09-04T17:45:15;22.80;99.90
20566;DHT22;10441;50.884;12.064;2022-09-04T17:47:46;22.90;99.90
20566;DHT22;10441;50.884;12.064;2022-09-04T17:50:16;22.60;99.90
20566;DHT22;10441;50.884;12.064;2022-09-04T17:52:54;22.40;99.90
20566;DHT22;10441;50.884;12.064;2022-09-04T17:55:22;21.90;99.90
20566;DHT22;10441;50.884;12.064;2022-09-04T17:57:52;21.40;99.90
20566;DHT22;10441;50.884;12.064;2022-09-04T18:00:21;21.40;99.90
20566;DHT22;10441;50.884;12.064;2022-09-04T18:02:51;21.30;99.90
20566;DHT22;10441;50.884;12.064;2022-09-04T18:05:20;20.80;99.90
20566;DHT22;10441;50.884;12.064;2022-09-04T18:07:50;20.50;99.90
20566;DHT22;10441;50.884;12.064;2022-09-04T18:10:23;20.50;99.90
20566;DHT22;10441;50.884;12.064;2022-09-04T18:12:57;20.50;99.90